sensor_id;sensor_type;location;lat;lon;timestamp;P1;durP1;ratioP1;P2;durP2;ratioP2
63218;SDS011;49320;52.512;13.448;2023-12-14T00:02:02;9.95;;;7.93;;
63218;SDS011;49320;52.512;13.448;2023-12-14T00:04:29;9.00;;;7.70;;
63218;SDS011;49320;52.512;13.448;2023-12-14T00:06:56;9.32;;;7.35;;
63218;SDS011;49320;52.512;13.448;2023-12-14T00:09:23;8.90;;;7.15;;
63218;SDS011;49320;52.512;13.448;2023-12-14T00:11:50;10.30;;;7.80;;
63218;SDS011;49320;52.512;13.448;2023-12-14T00:14:17;10.45;;;8.52;;
63218;SDS011;49320;52.512;13.448;2023-12-14T00:16:44;10.10;;;8.27;;
63218;SDS011;49320;52.512;13.448;2023-12-14T00:19:11;9.68;;;7.90;;
63218;SDS011;49320;52.512;13.448;2023-12-14T00:21:38;10.63;;;8.43;;
63218;SDS011;49320;52.512;13.448;2023-12-14T00:24:06;12.73;;;8.50;;
63218;SDS011;49320;52.512;13.448;2023-12-14T00:26:33;10.10;;;7.97;;
63218;SDS011;49320;52.512;13.448;2023-12-14T00:29:00;11.70;;;9.50;;
63218;SDS011;49320;52.512;13.448;2023-12-14T00:31:27;10.73;;;8.25;;
63218;SDS011;49320;52.512;13.448;2023-12-14T00:33:55;9.57;;;8.35;;
63218;SDS011;49320;52.512;13.448;2023-12-14T00:36:22;9.73;;;8.05;;
63218;SDS011;49320;52.512;13.448;2023-12-14T00:38:49;10.35;;;8.65;;
63218;SDS011;49320;52.512;13.448;2023-12-14T00:41:16;10.30;;;8.52;;
63218;SDS011;49320;52.512;13.448;2023-12-14T00:43:43;11.05;;;8.50;;
63218;SDS011;49320;52.512;13.448;2023-12-14T00:46:10;10.05;;;8.05;;
63218;SDS011;49320;52.512;13.448;2023-12-14T00:48:38;10.68;;;8.90;;
63218;SDS011;49320;52.512;13.448;2023-12-14T00:51:05;10.15;;;8.25;;
63218;SDS011;49320;52.512;13.448;2023-12-14T00:53:32;11.32;;;8.70;;
63218;SDS011;49320;52.512;13.448;2023-12-14T00:55:59;10.80;;;8.18;;
63218;SDS011;49320;52.512;13.448;2023-12-14T00:58:26;10.98;;;8.48;;
63218;SDS011;49320;52.512;13.448;2023-12-14T01:00:54;12.43;;;8.80;;
63218;SDS011;49320;52.512;13.448;2023-12-14T01:03:21;10.55;;;8.00;;
63218;SDS011;49320;52.512;13.448;2023-12-14T01:05:49;10.65;;;8.65;;
63218;SDS011;49320;52.512;13.448;2023-12-14T01:08:16;10.90;;;7.63;;
63218;SDS011;49320;52.512;13.448;2023-12-14T01:10:44;11.77;;;8.18;;
63218;SDS011;49320;52.512;13.448;2023-12-14T01:13:11;11.32;;;8.38;;
63218;SDS011;49320;52.512;13.448;2023-12-14T01:15:37;10.13;;;7.47;;
63218;SDS011;49320;52.512;13.448;2023-12-14T01:18:04;10.32;;;8.48;;
63218;SDS011;49320;52.512;13.448;2023-12-14T01:20:32;11.52;;;8.05;;
63218;SDS011;49320;52.512;13.448;2023-12-14T01:22:59;10.55;;;8.10;;
63218;SDS011;49320;52.512;13.448;2023-12-14T01:25:26;11.27;;;8.30;;
63218;SDS011;49320;52.512;13.448;2023-12-14T01:27:53;10.27;;;7.35;;
63218;SDS011;49320;52.512;13.448;2023-12-14T01:30:20;9.93;;;7.00;;
63218;SDS011;49320;52.512;13.448;2023-12-14T01:32:47;10.35;;;7.97;;
63218;SDS011;49320;52.512;13.448;2023-12-14T01:35:14;9.48;;;7.45;;
63218;SDS011;49320;52.512;13.448;2023-12-14T01:37:41;10.00;;;7.20;;
63218;SDS011;49320;52.512;13.448;2023-12-14T01:40:08;10.52;;;7.25;;
63218;SDS011;49320;52.512;13.448;2023-12-14T01:42:36;8.00;;;7.13;;
63218;SDS011;49320;52.512;13.448;2023-12-14T01:45:04;9.27;;;7.10;;
63218;SDS011;49320;52.512;13.448;2023-12-14T01:47:32;9.55;;;7.05;;
63218;SDS011;49320;52.512;13.448;2023-12-14T01:49:59;9.57;;;6.72;;
63218;SDS011;49320;52.512;13.448;2023-12-14T01:52:26;7.78;;;6.28;;
63218;SDS011;49320;52.512;13.448;2023-12-14T01:54:53;9.05;;;7.60;;
63218;SDS011;49320;52.512;13.448;2023-12-14T01:57:21;6.82;;;5.82;;
63218;SDS011;49320;52.512;13.448;2023-12-14T01:59:48;8.02;;;5.70;;
63218;SDS011;49320;52.512;13.448;2023-12-14T02:02:15;9.93;;;6.75;;
63218;SDS011;49320;52.512;13.448;2023-12-14T02:04:42;8.00;;;5.97;;
63218;SDS011;49320;52.512;13.448;2023-12-14T02:07:09;7.18;;;5.32;;
63218;SDS011;49320;52.512;13.448;2023-12-14T02:09:36;7.78;;;5.22;;
63218;SDS011;49320;52.512;13.448;2023-12-14T02:12:05;7.20;;;5.68;;
63218;SDS011;49320;52.512;13.448;2023-12-14T02:14:32;6.25;;;5.28;;
63218;SDS011;49320;52.512;13.448;2023-12-14T02:16:59;7.40;;;5.15;;
63218;SDS011;49320;52.512;13.448;2023-12-14T02:19:26;6.15;;;4.78;;
63218;SDS011;49320;52.512;13.448;2023-12-14T02:21:53;5.68;;;4.22;;
63218;SDS011;49320;52.512;13.448;2023-12-14T02:24:20;6.40;;;4.72;;
63218;SDS011;49320;52.512;13.448;2023-12-14T02:26:47;6.32;;;5.03;;
63218;SDS011;49320;52.512;13.448;2023-12-14T02:29:28;6.65;;;4.80;;
63218;SDS011;49320;52.512;13.448;2023-12-14T02:31:56;7.50;;;4.80;;
63218;SDS011;49320;52.512;13.448;2023-12-14T02:34:23;7.50;;;5.75;;
63218;SDS011;49320;52.512;13.448;2023-12-14T02:36:51;7.63;;;5.95;;
63218;SDS011;49320;52.512;13.448;2023-12-14T02:39:19;7.45;;;5.88;;
63218;SDS011;49320;52.512;13.448;2023-12-14T02:41:46;7.18;;;5.68;;
63218;SDS011;49320;52.512;13.448;2023-12-14T02:44:13;8.00;;;6.10;;
63218;SDS011;49320;52.512;13.448;2023-12-14T02:46:40;8.27;;;6.07;;
63218;SDS011;49320;52.512;13.448;2023-12-14T02:49:08;7.45;;;5.70;;
63218;SDS011;49320;52.512;13.448;2023-12-14T02:51:34;7.55;;;6.20;;
63218;SDS011;49320;52.512;13.448;2023-12-14T02:54:02;8.75;;;6.20;;
63218;SDS011;49320;52.512;13.448;2023-12-14T02:56:29;8.77;;;6.57;;
63218;SDS011;49320;52.512;13.448;2023-12-14T02:58:56;8.23;;;6.28;;
63218;SDS011;49320;52.512;13.448;2023-12-14T03:01:23;7.68;;;6.07;;
63218;SDS011;49320;52.512;13.448;2023-12-14T03:03:50;7.57;;;5.95;;
63218;SDS011;49320;52.512;13.448;2023-12-14T03:06:17;8.63;;;6.43;;
63218;SDS011;49320;52.512;13.448;2023-12-14T03:08:44;11.85;;;7.38;;
63218;SDS011;49320;52.512;13.448;2023-12-14T03:11:20;7.43;;;5.93;;
63218;SDS011;49320;52.512;13.448;2023-12-14T03:13:52;9.45;;;6.57;;
63218;SDS011;49320;52.512;13.448;2023-12-14T03:16:20;7.78;;;5.90;;
63218;SDS011;49320;52.512;13.448;2023-12-14T03:18:47;8.07;;;6.18;;
63218;SDS011;49320;52.512;13.448;2023-12-14T03:21:19;11.63;;;7.55;;
63218;SDS011;49320;52.512;13.448;2023-12-14T03:23:46;10.13;;;6.75;;
63218;SDS011;49320;52.512;13.448;2023-12-14T03:26:14;8.27;;;6.30;;
63218;SDS011;49320;52.512;13.448;2023-12-14T03:28:41;8.52;;;6.07;;
63218;SDS011;49320;52.512;13.448;2023-12-14T03:31:10;11.13;;;6.70;;
63218;SDS011;49320;52.512;13.448;2023-12-14T03:33:39;7.30;;;5.72;;
63218;SDS011;49320;52.512;13.448;2023-12-14T03:36:08;9.00;;;6.15;;
63218;SDS011;49320;52.512;13.448;2023-12-14T03:38:35;8.50;;;6.18;;
63218;SDS011;49320;52.512;13.448;2023-12-14T03:41:02;7.43;;;5.55;;
63218;SDS011;49320;52.512;13.448;2023-12-14T03:43:29;7.75;;;5.90;;
63218;SDS011;49320;52.512;13.448;2023-12-14T03:45:56;9.32;;;6.45;;
63218;SDS011;49320;52.512;13.448;2023-12-14T03:48:22;8.50;;;6.15;;
63218;SDS011;49320;52.512;13.448;2023-12-14T03:50:49;9.00;;;6.38;;
63218;SDS011;49320;52.512;13.448;2023-12-14T03:53:16;7.38;;;6.03;;
63218;SDS011;49320;52.512;13.448;2023-12-14T03:55:44;7.93;;;6.00;;
63218;SDS011;49320;52.512;13.448;2023-12-14T03:58:12;8.75;;;5.97;;
63218;SDS011;49320;52.512;13.448;2023-12-14T04:00:39;9.52;;;6.68;;
63218;SDS011;49320;52.512;13.448;2023-12-14T04:03:06;7.35;;;5.05;;
63218;SDS011;49320;52.512;13.448;2023-12-14T04:05:33;9.60;;;5.55;;
63218;SDS011;49320;52.512;13.448;2023-12-14T04:08:01;7.25;;;5.40;;
63218;SDS011;49320;52.512;13.448;2023-12-14T04:10:28;7.60;;;5.07;;
63218;SDS011;49320;52.512;13.448;2023-12-14T04:12:55;6.47;;;5.15;;
63218;SDS011;49320;52.512;13.448;2023-12-14T04:15:22;7.82;;;5.10;;
63218;SDS011;49320;52.512;13.448;2023-12-14T04:17:50;8.25;;;5.75;;
63218;SDS011;49320;52.512;13.448;2023-12-14T04:20:18;6.22;;;4.68;;
63218;SDS011;49320;52.512;13.448;2023-12-14T04:22:45;6.28;;;4.55;;
63218;SDS011;49320;52.512;13.448;2023-12-14T04:25:13;5.53;;;4.53;;
63218;SDS011;49320;52.512;13.448;2023-12-14T04:27:40;7.78;;;5.13;;
63218;SDS011;49320;52.512;13.448;2023-12-14T04:30:07;6.53;;;4.68;;
63218;SDS011;49320;52.512;13.448;2023-12-14T04:32:38;5.43;;;4.90;;
63218;SDS011;49320;52.512;13.448;2023-12-14T04:35:05;6.30;;;4.68;;
63218;SDS011;49320;52.512;13.448;2023-12-14T04:37:33;7.10;;;4.85;;
63218;SDS011;49320;52.512;13.448;2023-12-14T04:40:00;6.63;;;4.47;;
63218;SDS011;49320;52.512;13.448;2023-12-14T04:42:27;5.82;;;4.88;;
63218;SDS011;49320;52.512;13.448;2023-12-14T04:44:54;7.28;;;4.38;;
63218;SDS011;49320;52.512;13.448;2023-12-14T04:47:22;6.55;;;4.60;;
63218;SDS011;49320;52.512;13.448;2023-12-14T04:49:48;6.22;;;4.68;;
63218;SDS011;49320;52.512;13.448;2023-12-14T04:52:16;6.75;;;4.85;;
63218;SDS011;49320;52.512;13.448;2023-12-14T04:54:43;6.18;;;4.97;;
63218;SDS011;49320;52.512;13.448;2023-12-14T04:57:10;6.38;;;4.65;;
63218;SDS011;49320;52.512;13.448;2023-12-14T04:59:37;6.63;;;5.07;;
63218;SDS011;49320;52.512;13.448;2023-12-14T05:02:06;6.43;;;5.25;;
63218;SDS011;49320;52.512;13.448;2023-12-14T05:04:34;5.72;;;5.00;;
63218;SDS011;49320;52.512;13.448;2023-12-14T05:07:00;5.85;;;4.80;;
63218;SDS011;49320;52.512;13.448;2023-12-14T05:09:28;7.97;;;5.40;;
63218;SDS011;49320;52.512;13.448;2023-12-14T05:11:55;5.97;;;5.30;;
63218;SDS011;49320;52.512;13.448;2023-12-14T05:14:22;6.75;;;5.03;;
63218;SDS011;49320;52.512;13.448;2023-12-14T05:16:49;6.85;;;5.20;;
63218;SDS011;49320;52.512;13.448;2023-12-14T05:19:17;6.55;;;5.15;;
63218;SDS011;49320;52.512;13.448;2023-12-14T05:21:44;6.90;;;5.50;;
63218;SDS011;49320;52.512;13.448;2023-12-14T05:24:11;6.38;;;5.63;;
63218;SDS011;49320;52.512;13.448;2023-12-14T05:26:38;7.97;;;5.70;;
63218;SDS011;49320;52.512;13.448;2023-12-14T05:29:05;9.88;;;5.70;;
63218;SDS011;49320;52.512;13.448;2023-12-14T05:31:32;6.43;;;5.60;;
63218;SDS011;49320;52.512;13.448;2023-12-14T05:33:59;7.20;;;5.30;;
63218;SDS011;49320;52.512;13.448;2023-12-14T05:36:26;7.05;;;5.50;;
63218;SDS011;49320;52.512;13.448;2023-12-14T05:38:54;7.25;;;5.78;;
63218;SDS011;49320;52.512;13.448;2023-12-14T05:41:21;6.90;;;5.50;;
63218;SDS011;49320;52.512;13.448;2023-12-14T05:43:48;7.72;;;5.40;;
63218;SDS011;49320;52.512;13.448;2023-12-14T05:46:22;6.88;;;5.72;;
63218;SDS011;49320;52.512;13.448;2023-12-14T05:48:50;7.78;;;5.53;;
63218;SDS011;49320;52.512;13.448;2023-12-14T05:51:30;5.95;;;5.30;;
63218;SDS011;49320;52.512;13.448;2023-12-14T05:53:59;6.50;;;5.78;;
63218;SDS011;49320;52.512;13.448;2023-12-14T05:56:26;5.82;;;5.22;;
63218;SDS011;49320;52.512;13.448;2023-12-14T05:58:53;6.22;;;5.35;;
63218;SDS011;49320;52.512;13.448;2023-12-14T06:01:20;5.43;;;4.72;;
63218;SDS011;49320;52.512;13.448;2023-12-14T06:03:49;5.88;;;4.93;;
63218;SDS011;49320;52.512;13.448;2023-12-14T06:06:16;6.30;;;5.07;;
63218;SDS011;49320;52.512;13.448;2023-12-14T06:08:43;5.72;;;4.72;;
63218;SDS011;49320;52.512;13.448;2023-12-14T06:11:11;5.43;;;4.70;;
63218;SDS011;49320;52.512;13.448;2023-12-14T06:13:39;5.20;;;4.63;;
63218;SDS011;49320;52.512;13.448;2023-12-14T06:16:06;5.22;;;4.72;;
63218;SDS011;49320;52.512;13.448;2023-12-14T06:18:39;5.20;;;4.70;;
63218;SDS011;49320;52.512;13.448;2023-12-14T06:21:11;5.43;;;4.35;;
63218;SDS011;49320;52.512;13.448;2023-12-14T06:23:37;5.85;;;4.90;;
63218;SDS011;49320;52.512;13.448;2023-12-14T06:26:04;4.90;;;4.18;;
63218;SDS011;49320;52.512;13.448;2023-12-14T06:28:33;4.40;;;4.00;;
63218;SDS011;49320;52.512;13.448;2023-12-14T06:31:00;5.63;;;4.32;;
63218;SDS011;49320;52.512;13.448;2023-12-14T06:33:27;5.50;;;4.72;;
63218;SDS011;49320;52.512;13.448;2023-12-14T06:35:55;5.72;;;4.72;;
63218;SDS011;49320;52.512;13.448;2023-12-14T06:38:22;5.65;;;4.80;;
63218;SDS011;49320;52.512;13.448;2023-12-14T06:40:50;5.30;;;4.80;;
63218;SDS011;49320;52.512;13.448;2023-12-14T06:43:17;5.35;;;4.85;;
63218;SDS011;49320;52.512;13.448;2023-12-14T06:45:44;5.40;;;4.72;;
63218;SDS011;49320;52.512;13.448;2023-12-14T06:48:11;6.03;;;4.80;;
63218;SDS011;49320;52.512;13.448;2023-12-14T06:50:38;5.80;;;5.20;;
63218;SDS011;49320;52.512;13.448;2023-12-14T06:53:05;5.32;;;4.82;;
63218;SDS011;49320;52.512;13.448;2023-12-14T06:55:32;5.90;;;5.30;;
63218;SDS011;49320;52.512;13.448;2023-12-14T06:57:59;6.50;;;5.45;;
63218;SDS011;49320;52.512;13.448;2023-12-14T07:00:26;6.10;;;5.50;;
63218;SDS011;49320;52.512;13.448;2023-12-14T07:02:53;5.68;;;5.05;;
63218;SDS011;49320;52.512;13.448;2023-12-14T07:05:21;5.25;;;4.75;;
63218;SDS011;49320;52.512;13.448;2023-12-14T07:07:48;6.22;;;5.47;;
63218;SDS011;49320;52.512;13.448;2023-12-14T07:10:15;6.60;;;5.88;;
63218;SDS011;49320;52.512;13.448;2023-12-14T07:12:42;6.13;;;5.53;;
63218;SDS011;49320;52.512;13.448;2023-12-14T07:15:10;6.68;;;5.60;;
63218;SDS011;49320;52.512;13.448;2023-12-14T07:17:36;6.75;;;5.35;;
63218;SDS011;49320;52.512;13.448;2023-12-14T07:20:03;7.28;;;6.05;;
63218;SDS011;49320;52.512;13.448;2023-12-14T07:22:32;7.07;;;5.68;;
63218;SDS011;49320;52.512;13.448;2023-12-14T07:25:00;6.53;;;5.30;;
63218;SDS011;49320;52.512;13.448;2023-12-14T07:27:27;7.03;;;5.50;;
63218;SDS011;49320;52.512;13.448;2023-12-14T07:29:54;5.95;;;5.28;;
63218;SDS011;49320;52.512;13.448;2023-12-14T07:32:21;7.72;;;5.57;;
63218;SDS011;49320;52.512;13.448;2023-12-14T07:34:49;6.43;;;5.78;;
63218;SDS011;49320;52.512;13.448;2023-12-14T07:37:16;6.43;;;5.78;;
63218;SDS011;49320;52.512;13.448;2023-12-14T07:39:43;6.95;;;6.22;;
63218;SDS011;49320;52.512;13.448;2023-12-14T07:42:10;7.65;;;6.15;;
63218;SDS011;49320;52.512;13.448;2023-12-14T07:44:38;7.80;;;7.00;;
63218;SDS011;49320;52.512;13.448;2023-12-14T07:47:06;7.78;;;6.97;;
63218;SDS011;49320;52.512;13.448;2023-12-14T07:49:34;7.18;;;6.32;;
63218;SDS011;49320;52.512;13.448;2023-12-14T07:52:01;8.90;;;7.38;;
63218;SDS011;49320;52.512;13.448;2023-12-14T07:54:29;7.65;;;6.82;;
63218;SDS011;49320;52.512;13.448;2023-12-14T07:56:55;9.73;;;8.10;;
63218;SDS011;49320;52.512;13.448;2023-12-14T07:59:23;9.45;;;8.02;;
63218;SDS011;49320;52.512;13.448;2023-12-14T08:01:50;8.93;;;7.95;;
63218;SDS011;49320;52.512;13.448;2023-12-14T08:04:17;8.48;;;7.03;;
63218;SDS011;49320;52.512;13.448;2023-12-14T08:06:44;8.95;;;8.02;;
63218;SDS011;49320;52.512;13.448;2023-12-14T08:09:12;8.52;;;7.70;;
63218;SDS011;49320;52.512;13.448;2023-12-14T08:11:38;8.88;;;7.30;;
63218;SDS011;49320;52.512;13.448;2023-12-14T08:14:05;8.25;;;7.30;;
63218;SDS011;49320;52.512;13.448;2023-12-14T08:16:32;9.88;;;7.75;;
63218;SDS011;49320;52.512;13.448;2023-12-14T08:19:00;9.20;;;8.25;;
63218;SDS011;49320;52.512;13.448;2023-12-14T08:21:27;8.85;;;7.95;;
63218;SDS011;49320;52.512;13.448;2023-12-14T08:23:55;8.00;;;7.20;;
63218;SDS011;49320;52.512;13.448;2023-12-14T08:26:21;10.55;;;8.27;;
63218;SDS011;49320;52.512;13.448;2023-12-14T08:28:49;9.43;;;8.48;;
63218;SDS011;49320;52.512;13.448;2023-12-14T08:31:16;9.05;;;8.13;;
63218;SDS011;49320;52.512;13.448;2023-12-14T08:33:43;8.85;;;7.95;;
63218;SDS011;49320;52.512;13.448;2023-12-14T08:36:15;9.38;;;8.18;;
63218;SDS011;49320;52.512;13.448;2023-12-14T08:38:43;9.15;;;8.05;;
63218;SDS011;49320;52.512;13.448;2023-12-14T08:41:13;8.98;;;8.07;;
63218;SDS011;49320;52.512;13.448;2023-12-14T08:43:41;9.55;;;8.20;;
63218;SDS011;49320;52.512;13.448;2023-12-14T08:46:09;9.48;;;8.07;;
63218;SDS011;49320;52.512;13.448;2023-12-14T08:48:36;8.65;;;7.72;;
63218;SDS011;49320;52.512;13.448;2023-12-14T08:51:04;9.23;;;8.32;;
63218;SDS011;49320;52.512;13.448;2023-12-14T08:53:31;8.70;;;7.80;;
63218;SDS011;49320;52.512;13.448;2023-12-14T08:55:58;10.10;;;8.05;;
63218;SDS011;49320;52.512;13.448;2023-12-14T08:58:26;9.00;;;7.80;;
63218;SDS011;49320;52.512;13.448;2023-12-14T09:00:53;9.48;;;8.30;;
63218;SDS011;49320;52.512;13.448;2023-12-14T09:03:20;8.63;;;7.72;;
63218;SDS011;49320;52.512;13.448;2023-12-14T09:05:47;9.45;;;8.45;;
63218;SDS011;49320;52.512;13.448;2023-12-14T09:08:14;8.57;;;7.68;;
63218;SDS011;49320;52.512;13.448;2023-12-14T09:10:41;27.00;;;23.27;;
63218;SDS011;49320;52.512;13.448;2023-12-14T09:13:08;14.07;;;11.82;;
63218;SDS011;49320;52.512;13.448;2023-12-14T09:15:36;10.52;;;9.40;;
63218;SDS011;49320;52.512;13.448;2023-12-14T09:18:02;9.93;;;8.93;;
63218;SDS011;49320;52.512;13.448;2023-12-14T09:20:30;9.98;;;8.98;;
63218;SDS011;49320;52.512;13.448;2023-12-14T09:22:57;11.02;;;8.65;;
63218;SDS011;49320;52.512;13.448;2023-12-14T09:25:24;8.70;;;7.65;;
63218;SDS011;49320;52.512;13.448;2023-12-14T09:27:52;9.65;;;8.00;;
63218;SDS011;49320;52.512;13.448;2023-12-14T09:30:19;9.23;;;7.95;;
63218;SDS011;49320;52.512;13.448;2023-12-14T09:32:46;8.52;;;7.32;;
63218;SDS011;49320;52.512;13.448;2023-12-14T09:35:13;9.88;;;7.80;;
63218;SDS011;49320;52.512;13.448;2023-12-14T09:37:41;9.48;;;7.78;;
63218;SDS011;49320;52.512;13.448;2023-12-14T09:40:08;9.90;;;8.55;;
63218;SDS011;49320;52.512;13.448;2023-12-14T09:42:38;9.05;;;7.72;;
63218;SDS011;49320;52.512;13.448;2023-12-14T09:45:06;10.25;;;8.18;;
63218;SDS011;49320;52.512;13.448;2023-12-14T09:47:36;8.80;;;7.88;;
63218;SDS011;49320;52.512;13.448;2023-12-14T09:50:05;9.30;;;8.30;;
63218;SDS011;49320;52.512;13.448;2023-12-14T09:52:33;9.38;;;7.53;;
63218;SDS011;49320;52.512;13.448;2023-12-14T09:55:01;8.02;;;7.22;;
63218;SDS011;49320;52.512;13.448;2023-12-14T09:57:30;9.23;;;7.75;;
63218;SDS011;49320;52.512;13.448;2023-12-14T09:59:57;9.63;;;7.40;;
63218;SDS011;49320;52.512;13.448;2023-12-14T10:02:25;7.68;;;6.88;;
63218;SDS011;49320;52.512;13.448;2023-12-14T10:04:56;8.73;;;7.05;;
63218;SDS011;49320;52.512;13.448;2023-12-14T10:07:23;7.90;;;7.10;;
63218;SDS011;49320;52.512;13.448;2023-12-14T10:09:50;7.95;;;7.15;;
63218;SDS011;49320;52.512;13.448;2023-12-14T10:12:19;8.70;;;6.90;;
63218;SDS011;49320;52.512;13.448;2023-12-14T10:14:48;8.98;;;7.43;;
63218;SDS011;49320;52.512;13.448;2023-12-14T10:17:28;9.93;;;6.97;;
63218;SDS011;49320;52.512;13.448;2023-12-14T10:19:59;10.20;;;8.00;;
63218;SDS011;49320;52.512;13.448;2023-12-14T10:22:30;9.55;;;7.93;;
63218;SDS011;49320;52.512;13.448;2023-12-14T10:24:58;8.90;;;7.82;;
63218;SDS011;49320;52.512;13.448;2023-12-14T10:27:27;9.13;;;8.18;;
63218;SDS011;49320;52.512;13.448;2023-12-14T10:29:55;10.07;;;8.88;;
63218;SDS011;49320;52.512;13.448;2023-12-14T10:32:23;9.60;;;8.50;;
63218;SDS011;49320;52.512;13.448;2023-12-14T10:34:51;9.07;;;8.15;;
63218;SDS011;49320;52.512;13.448;2023-12-14T10:37:18;9.45;;;8.45;;
63218;SDS011;49320;52.512;13.448;2023-12-14T10:39:47;10.82;;;9.23;;
63218;SDS011;49320;52.512;13.448;2023-12-14T10:42:17;10.27;;;9.18;;
63218;SDS011;49320;52.512;13.448;2023-12-14T10:44:51;9.88;;;8.88;;
63218;SDS011;49320;52.512;13.448;2023-12-14T10:47:23;10.55;;;8.77;;
63218;SDS011;49320;52.512;13.448;2023-12-14T10:49:51;9.65;;;8.55;;
63218;SDS011;49320;52.512;13.448;2023-12-14T10:52:18;10.32;;;9.23;;
63218;SDS011;49320;52.512;13.448;2023-12-14T10:54:52;12.10;;;9.50;;
63218;SDS011;49320;52.512;13.448;2023-12-14T10:57:26;9.82;;;8.82;;
63218;SDS011;49320;52.512;13.448;2023-12-14T10:59:57;10.65;;;8.90;;
63218;SDS011;49320;52.512;13.448;2023-12-14T11:02:26;9.60;;;8.60;;
63218;SDS011;49320;52.512;13.448;2023-12-14T11:05:02;11.20;;;9.93;;
63218;SDS011;49320;52.512;13.448;2023-12-14T11:07:42;9.95;;;8.95;;
63218;SDS011;49320;52.512;13.448;2023-12-14T11:10:27;12.00;;;9.35;;
63218;SDS011;49320;52.512;13.448;2023-12-14T11:13:05;10.70;;;9.35;;
63218;SDS011;49320;52.512;13.448;2023-12-14T11:15:48;9.23;;;8.05;;
63218;SDS011;49320;52.512;13.448;2023-12-14T11:21:01;10.77;;;9.00;;
63218;SDS011;49320;52.512;13.448;2023-12-14T11:23:29;10.15;;;8.65;;
63218;SDS011;49320;52.512;13.448;2023-12-14T11:26:04;11.40;;;8.68;;
63218;SDS011;49320;52.512;13.448;2023-12-14T11:28:36;10.35;;;8.63;;
63218;SDS011;49320;52.512;13.448;2023-12-14T11:31:11;10.80;;;8.80;;
63218;SDS011;49320;52.512;13.448;2023-12-14T11:33:39;11.18;;;9.45;;
63218;SDS011;49320;52.512;13.448;2023-12-14T11:36:13;10.77;;;8.80;;
63218;SDS011;49320;52.512;13.448;2023-12-14T11:38:41;11.25;;;8.85;;
63218;SDS011;49320;52.512;13.448;2023-12-14T11:41:09;9.65;;;8.48;;
63218;SDS011;49320;52.512;13.448;2023-12-14T11:43:40;10.20;;;9.13;;
63218;SDS011;49320;52.512;13.448;2023-12-14T11:46:11;11.55;;;8.90;;
63218;SDS011;49320;52.512;13.448;2023-12-14T11:48:38;9.98;;;8.70;;
63218;SDS011;49320;52.512;13.448;2023-12-14T11:51:05;11.13;;;9.57;;
63218;SDS011;49320;52.512;13.448;2023-12-14T11:53:35;10.57;;;8.82;;
63218;SDS011;49320;52.512;13.448;2023-12-14T11:56:05;10.60;;;8.88;;
63218;SDS011;49320;52.512;13.448;2023-12-14T11:58:33;10.77;;;8.50;;
63218;SDS011;49320;52.512;13.448;2023-12-14T12:01:13;9.88;;;8.48;;
63218;SDS011;49320;52.512;13.448;2023-12-14T12:03:43;9.02;;;8.10;;
63218;SDS011;49320;52.512;13.448;2023-12-14T12:06:24;9.65;;;7.78;;
63218;SDS011;49320;52.512;13.448;2023-12-14T12:08:56;8.38;;;7.53;;
63218;SDS011;49320;52.512;13.448;2023-12-14T12:11:24;8.88;;;7.82;;
63218;SDS011;49320;52.512;13.448;2023-12-14T12:13:55;9.68;;;8.68;;
63218;SDS011;49320;52.512;13.448;2023-12-14T12:16:24;11.30;;;9.40;;
63218;SDS011;49320;52.512;13.448;2023-12-14T12:18:51;10.13;;;8.43;;
63218;SDS011;49320;52.512;13.448;2023-12-14T12:21:19;9.15;;;8.02;;
63218;SDS011;49320;52.512;13.448;2023-12-14T12:23:46;10.00;;;8.50;;
63218;SDS011;49320;52.512;13.448;2023-12-14T12:26:14;9.85;;;8.63;;
63218;SDS011;49320;52.512;13.448;2023-12-14T12:28:41;9.13;;;8.23;;
63218;SDS011;49320;52.512;13.448;2023-12-14T12:31:08;9.73;;;7.88;;
63218;SDS011;49320;52.512;13.448;2023-12-14T12:33:35;9.05;;;8.15;;
63218;SDS011;49320;52.512;13.448;2023-12-14T12:36:04;10.45;;;8.98;;
63218;SDS011;49320;52.512;13.448;2023-12-14T12:38:32;11.02;;;9.02;;
63218;SDS011;49320;52.512;13.448;2023-12-14T12:40:59;9.30;;;8.35;;
63218;SDS011;49320;52.512;13.448;2023-12-14T12:43:27;8.73;;;7.82;;
63218;SDS011;49320;52.512;13.448;2023-12-14T12:45:54;9.43;;;8.40;;
63218;SDS011;49320;52.512;13.448;2023-12-14T12:48:21;9.23;;;7.90;;
63218;SDS011;49320;52.512;13.448;2023-12-14T12:50:53;8.82;;;7.53;;
63218;SDS011;49320;52.512;13.448;2023-12-14T12:53:20;9.27;;;7.93;;
63218;SDS011;49320;52.512;13.448;2023-12-14T12:55:47;8.32;;;7.30;;
63218;SDS011;49320;52.512;13.448;2023-12-14T12:58:14;9.10;;;8.10;;
63218;SDS011;49320;52.512;13.448;2023-12-14T13:00:42;9.85;;;8.13;;
63218;SDS011;49320;52.512;13.448;2023-12-14T13:03:09;8.18;;;7.28;;
63218;SDS011;49320;52.512;13.448;2023-12-14T13:05:37;8.80;;;7.78;;
63218;SDS011;49320;52.512;13.448;2023-12-14T13:08:04;9.00;;;8.10;;
63218;SDS011;49320;52.512;13.448;2023-12-14T13:10:31;8.82;;;7.55;;
63218;SDS011;49320;52.512;13.448;2023-12-14T13:12:58;8.32;;;7.43;;
63218;SDS011;49320;52.512;13.448;2023-12-14T13:15:26;8.07;;;7.28;;
63218;SDS011;49320;52.512;13.448;2023-12-14T13:17:55;8.05;;;6.90;;
63218;SDS011;49320;52.512;13.448;2023-12-14T13:20:23;10.02;;;8.32;;
63218;SDS011;49320;52.512;13.448;2023-12-14T13:22:50;8.73;;;7.82;;
63218;SDS011;49320;52.512;13.448;2023-12-14T13:25:18;8.10;;;7.30;;
63218;SDS011;49320;52.512;13.448;2023-12-14T13:27:45;8.40;;;7.60;;
63218;SDS011;49320;52.512;13.448;2023-12-14T13:30:12;9.77;;;8.77;;
63218;SDS011;49320;52.512;13.448;2023-12-14T13:32:44;8.65;;;7.75;;
63218;SDS011;49320;52.512;13.448;2023-12-14T13:35:11;9.65;;;8.57;;
63218;SDS011;49320;52.512;13.448;2023-12-14T13:37:38;9.68;;;8.13;;
63218;SDS011;49320;52.512;13.448;2023-12-14T13:40:06;10.35;;;8.90;;
63218;SDS011;49320;52.512;13.448;2023-12-14T13:42:33;9.07;;;7.88;;
63218;SDS011;49320;52.512;13.448;2023-12-14T13:45:04;9.88;;;8.18;;
63218;SDS011;49320;52.512;13.448;2023-12-14T13:47:32;10.63;;;9.05;;
63218;SDS011;49320;52.512;13.448;2023-12-14T13:49:59;9.57;;;8.52;;
63218;SDS011;49320;52.512;13.448;2023-12-14T13:52:26;9.90;;;8.55;;
63218;SDS011;49320;52.512;13.448;2023-12-14T13:54:57;10.00;;;8.65;;
63218;SDS011;49320;52.512;13.448;2023-12-14T13:57:25;9.25;;;8.25;;
63218;SDS011;49320;52.512;13.448;2023-12-14T13:59:53;9.50;;;8.50;;
63218;SDS011;49320;52.512;13.448;2023-12-14T14:02:20;8.98;;;7.97;;
63218;SDS011;49320;52.512;13.448;2023-12-14T14:04:49;10.77;;;8.82;;
63218;SDS011;49320;52.512;13.448;2023-12-14T14:07:19;10.43;;;9.32;;
63218;SDS011;49320;52.512;13.448;2023-12-14T14:09:49;10.77;;;9.68;;
63218;SDS011;49320;52.512;13.448;2023-12-14T14:12:16;9.75;;;8.43;;
63218;SDS011;49320;52.512;13.448;2023-12-14T14:14:43;10.25;;;8.23;;
63218;SDS011;49320;52.512;13.448;2023-12-14T14:17:10;11.27;;;7.75;;
63218;SDS011;49320;52.512;13.448;2023-12-14T14:19:38;9.38;;;8.43;;
63218;SDS011;49320;52.512;13.448;2023-12-14T14:22:05;10.27;;;8.52;;
63218;SDS011;49320;52.512;13.448;2023-12-14T14:24:32;10.50;;;8.40;;
63218;SDS011;49320;52.512;13.448;2023-12-14T14:26:59;11.82;;;8.48;;
63218;SDS011;49320;52.512;13.448;2023-12-14T14:29:26;10.55;;;8.55;;
63218;SDS011;49320;52.512;13.448;2023-12-14T14:31:54;9.68;;;8.18;;
63218;SDS011;49320;52.512;13.448;2023-12-14T14:34:21;9.40;;;8.40;;
63218;SDS011;49320;52.512;13.448;2023-12-14T14:36:50;8.95;;;8.00;;
63218;SDS011;49320;52.512;13.448;2023-12-14T14:39:18;9.70;;;8.02;;